Brem, Washington
Current Conditions -  °F | °C
As of 10:55 PM on Friday 24 Oct 2014 (Local Time) from KPWT Reporting Station
Overcast Overcast  
Wind Chill: 42°   Ceiling: 4500
Heat Index: 48°   Visibility: 10mi
Dew Point: 48°   Wind: 16mph
Humidity: 100%   Direction: 20°NNE
Pressure: 29.81"   Gusts: 21mph
Location:  47.5691°N, 122.818°W
Report Text: KPWT 250555Z AUTO 02014G18KT 10SM FEW011 OVC045 09/09 A2981 RMK AO1 P0006 60017 10120 20090 57020
Loading
Personal Weather Stations






























Interactive Weather Map
Tropical Storm Tracking
New forecast layout! Learn more

10-Day Weather Forecast

Advertisements
Track Severe Weather on mobile